Airfield :
LOGIN :

Register | Disclaimer

   EN    FR    IT 

 










Legend :    VFR   Marginal VFR   IFR   Intensive IFR   Very Intensive IFR
Visi :
Ceiling :
>= 8 km
>= 3000ft
5 to 8 km
1000 to 3000 ft
1500m to 5 km
500 to 1000 ft
800 to 1500m
200 to 500 ft
< 800m
< 200 ft
Symbols :   Thunderstorms  Fog  Heavy snow  Heavy precipitations  Wind > 20 kt
SIGMETs :     Misc.  Thunderstorms  Icing  Turbulence  Mountain Waves  Volcanic Ashes







- Airport Elevation : 184 ft
- IATA code : BRU


EBBR - Bruxelles

CURRENT METAR :
  • 190820Z 31006KT 2500 BR FEW006 14/13 Q1006 NOSIG

EXPIRED METARs :
  • 190750Z 31007KT 280V350 2500 BR FEW006 14/12 Q1006 NOSIG
  • 190720Z 32005KT 290V350 2500 -RA BR BKN030 13/12 Q1007 NOSIG
  • 190650Z 31004KT 280V340 3700 -RA BR NSC 13/12 Q1007 NOSIG
  • 190620Z 32004KT 290V350 3700 -RA BR BKN036 13/12 Q1006 NOSIG
  • 190550Z 32004KT 3700 -RA BR NSC 13/11 Q1006 NOSIG

TAF TAF EBBR
Valid from the 19 at 06:00 until the 20 at 12:00 UTC


190510Z 1906/2012 34007KT 8000 FEW030TCU SCT045
PROB30
TEMPO 1906/1909 4000 SHRA
TEMPO 1913/1921 4000 SHRA
PROB40
TEMPO 1915/1919 VRB15G25KT 2000 TSRAGS BKN006 BKN025CB
BECMG 1920/1922 3000 BR BKN005
PROB40 2000/2008 1200 BR BKN003
BECMG 2010/2012 6000 NSW BKN008
No reported NOTAMs for that airfield.



MET'MAP, your aeronautical weather chart ! - Copyright ORBIFLY December 2007 - Disclaimer

ORBIFLY MET'MAP TEAM :

Programming & Development : Alexandra Zaïnal
Concept & Development : Baudouin d'Aumeries
Co-Development & Prog : Marc-Olivier Méhu
Technical & hardware support : Manuel Goepfert

Contact : metmap@orbifly.com




SOURCES & CREDITS :

   NOAA